sensor_id;sensor_type;location;lat;lon;timestamp;pressure;altitude;pressure_sealevel;temperature;humidity
62617;BME280;62539;51.190;6.808;2022-09-09T00:02:04;100565.13;;;26.42;46.40
62617;BME280;62539;51.190;6.808;2022-09-09T00:04:48;100565.84;;;26.45;46.50
62617;BME280;62539;51.190;6.808;2022-09-09T00:10:20;100552.56;;;26.45;46.52
62617;BME280;62539;51.190;6.808;2022-09-09T00:13:19;100558.84;;;26.44;46.13
62617;BME280;62539;51.190;6.808;2022-09-09T00:16:30;100553.63;;;26.42;46.14
62617;BME280;62539;51.190;6.808;2022-09-09T00:21:38;100554.47;;;26.42;46.23
62617;BME280;62539;51.190;6.808;2022-09-09T00:24:24;100550.13;;;26.41;45.97
62617;BME280;62539;51.190;6.808;2022-09-09T00:32:48;100558.97;;;26.42;46.18
62617;BME280;62539;51.190;6.808;2022-09-09T00:35:21;100551.81;;;26.42;46.16
62617;BME280;62539;51.190;6.808;2022-09-09T00:37:53;100562.44;;;26.42;45.93
62617;BME280;62539;51.190;6.808;2022-09-09T00:40:32;100545.75;;;26.40;46.19
62617;BME280;62539;51.190;6.808;2022-09-09T00:51:55;100547.56;;;26.40;46.01
62617;BME280;62539;51.190;6.808;2022-09-09T00:55:02;100549.50;;;26.38;46.06
62617;BME280;62539;51.190;6.808;2022-09-09T00:57:34;100551.06;;;26.40;46.26
62617;BME280;62539;51.190;6.808;2022-09-09T01:00:24;100545.13;;;26.37;46.24
62617;BME280;62539;51.190;6.808;2022-09-09T01:09:32;100555.88;;;26.35;45.91
62617;BME280;62539;51.190;6.808;2022-09-09T01:15:26;100546.19;;;26.34;46.02
62617;BME280;62539;51.190;6.808;2022-09-09T01:18:08;100549.59;;;26.36;46.09
62617;BME280;62539;51.190;6.808;2022-09-09T01:27:32;100539.91;;;26.35;46.09
62617;BME280;62539;51.190;6.808;2022-09-09T01:29:59;100541.75;;;26.35;46.31
62617;BME280;62539;51.190;6.808;2022-09-09T01:38:23;100534.72;;;26.34;46.09
62617;BME280;62539;51.190;6.808;2022-09-09T01:40:51;100538.22;;;26.34;45.91
62617;BME280;62539;51.190;6.808;2022-09-09T01:43:22;100528.53;;;26.33;45.95
62617;BME280;62539;51.190;6.808;2022-09-09T01:45:52;100534.59;;;26.35;45.97
62617;BME280;62539;51.190;6.808;2022-09-09T01:48:22;100537.25;;;26.35;46.30
62617;BME280;62539;51.190;6.808;2022-09-09T01:50:49;100531.94;;;26.35;45.93
62617;BME280;62539;51.190;6.808;2022-09-09T01:53:16;100527.50;;;26.36;46.00
62617;BME280;62539;51.190;6.808;2022-09-09T01:58:29;100536.44;;;26.35;46.13
62617;BME280;62539;51.190;6.808;2022-09-09T02:03:56;100540.88;;;26.34;45.80
62617;BME280;62539;51.190;6.808;2022-09-09T02:06:31;100534.72;;;26.34;45.82
62617;BME280;62539;51.190;6.808;2022-09-09T02:09:03;100540.88;;;26.34;45.98
62617;BME280;62539;51.190;6.808;2022-09-09T02:11:32;100550.69;;;26.34;45.89
62617;BME280;62539;51.190;6.808;2022-09-09T02:14:06;100541.84;;;26.33;45.94
62617;BME280;62539;51.190;6.808;2022-09-09T02:17:05;100541.84;;;26.33;45.81
62617;BME280;62539;51.190;6.808;2022-09-09T02:19:39;100543.66;;;26.33;45.81
62617;BME280;62539;51.190;6.808;2022-09-09T02:22:11;100535.69;;;26.33;46.23
62617;BME280;62539;51.190;6.808;2022-09-09T02:24:38;100539.19;;;26.33;45.78
62617;BME280;62539;51.190;6.808;2022-09-09T02:27:06;100547.16;;;26.33;46.05
62617;BME280;62539;51.190;6.808;2022-09-09T02:29:37;100545.47;;;26.32;45.95
62617;BME280;62539;51.190;6.808;2022-09-09T02:32:08;100539.19;;;26.33;46.02
62617;BME280;62539;51.190;6.808;2022-09-09T02:34:47;100545.59;;;26.31;46.18
62617;BME280;62539;51.190;6.808;2022-09-09T02:37:19;100540.13;;;26.32;45.84
62617;BME280;62539;51.190;6.808;2022-09-09T02:39:48;100532.16;;;26.32;45.92
62617;BME280;62539;51.190;6.808;2022-09-09T02:42:13;100537.47;;;26.32;46.06
62617;BME280;62539;51.190;6.808;2022-09-09T02:44:40;100548.13;;;26.32;45.89
62617;BME280;62539;51.190;6.808;2022-09-09T02:47:19;100537.59;;;26.31;45.94
62617;BME280;62539;51.190;6.808;2022-09-09T02:50:15;100532.38;;;26.29;45.94
62617;BME280;62539;51.190;6.808;2022-09-09T02:58:10;100522.59;;;26.30;45.82
62617;BME280;62539;51.190;6.808;2022-09-09T03:00:43;100528.03;;;26.28;46.09
62617;BME280;62539;51.190;6.808;2022-09-09T03:03:11;100531.53;;;26.29;45.98
62617;BME280;62539;51.190;6.808;2022-09-09T03:05:37;100525.34;;;26.28;46.23
62617;BME280;62539;51.190;6.808;2022-09-09T03:08:04;100525.34;;;26.28;46.13
62617;BME280;62539;51.190;6.808;2022-09-09T03:10:31;100520.91;;;26.29;45.93
62617;BME280;62539;51.190;6.808;2022-09-09T03:12:57;100510.28;;;26.29;46.09
62617;BME280;62539;51.190;6.808;2022-09-09T03:15:23;100515.59;;;26.29;46.12
62617;BME280;62539;51.190;6.808;2022-09-09T03:17:48;100523.66;;;26.27;46.14
62617;BME280;62539;51.190;6.808;2022-09-09T03:20:14;100516.56;;;26.27;46.28
62617;BME280;62539;51.190;6.808;2022-09-09T03:22:39;100513.03;;;26.27;46.19
62617;BME280;62539;51.190;6.808;2022-09-09T03:25:06;100510.38;;;26.27;45.81
62617;BME280;62539;51.190;6.808;2022-09-09T03:27:31;100515.69;;;26.27;46.17
62617;BME280;62539;51.190;6.808;2022-09-09T03:29:57;100514.84;;;26.26;46.13
62617;BME280;62539;51.190;6.808;2022-09-09T03:32:23;100513.03;;;26.27;45.81
62617;BME280;62539;51.190;6.808;2022-09-09T03:34:51;100523.66;;;26.27;45.84
62617;BME280;62539;51.190;6.808;2022-09-09T03:37:17;100513.16;;;26.25;45.95
62617;BME280;62539;51.190;6.808;2022-09-09T03:39:43;100513.97;;;26.26;46.02
62617;BME280;62539;51.190;6.808;2022-09-09T03:42:09;100516.63;;;26.26;45.74
62617;BME280;62539;51.190;6.808;2022-09-09T03:44:37;100522.81;;;26.26;45.89
62617;BME280;62539;51.190;6.808;2022-09-09T03:47:02;100520.25;;;26.25;46.21
62617;BME280;62539;51.190;6.808;2022-09-09T03:49:28;100518.56;;;26.24;46.27
62617;BME280;62539;51.190;6.808;2022-09-09T03:51:55;100509.63;;;26.25;45.92
62617;BME280;62539;51.190;6.808;2022-09-09T03:54:23;100511.44;;;26.24;46.15
62617;BME280;62539;51.190;6.808;2022-09-09T03:56:49;100507.94;;;26.24;45.83
62617;BME280;62539;51.190;6.808;2022-09-09T03:59:15;100517.72;;;26.23;45.93
62617;BME280;62539;51.190;6.808;2022-09-09T04:01:41;100515.16;;;26.22;45.97
62617;BME280;62539;51.190;6.808;2022-09-09T04:04:07;100515.16;;;26.22;45.95
62617;BME280;62539;51.190;6.808;2022-09-09T04:06:32;100517.81;;;26.22;46.16
62617;BME280;62539;51.190;6.808;2022-09-09T04:08:58;100515.16;;;26.22;46.21
62617;BME280;62539;51.190;6.808;2022-09-09T04:11:23;100512.63;;;26.20;45.97
62617;BME280;62539;51.190;6.808;2022-09-09T04:13:49;100521.44;;;26.21;46.16
62617;BME280;62539;51.190;6.808;2022-09-09T04:16:15;100518.78;;;26.21;45.95
62617;BME280;62539;51.190;6.808;2022-09-09T04:18:41;100517.09;;;26.20;45.98
62617;BME280;62539;51.190;6.808;2022-09-09T04:21:08;100518.78;;;26.21;46.12
62617;BME280;62539;51.190;6.808;2022-09-09T04:23:35;100517.00;;;26.21;46.16
62617;BME280;62539;51.190;6.808;2022-09-09T04:26:02;100517.09;;;26.20;45.92
62617;BME280;62539;51.190;6.808;2022-09-09T04:28:30;100511.75;;;26.20;46.04
62617;BME280;62539;51.190;6.808;2022-09-09T04:31:07;100513.69;;;26.18;46.32
62617;BME280;62539;51.190;6.808;2022-09-09T04:33:39;100507.53;;;26.17;46.20
62617;BME280;62539;51.190;6.808;2022-09-09T04:36:05;100515.59;;;26.16;46.20
62617;BME280;62539;51.190;6.808;2022-09-09T04:38:31;100512.09;;;26.15;46.53
62617;BME280;62539;51.190;6.808;2022-09-09T04:40:56;100519.22;;;26.15;46.54
62617;BME280;62539;51.190;6.808;2022-09-09T04:43:22;100519.22;;;26.15;46.49
62617;BME280;62539;51.190;6.808;2022-09-09T04:45:50;100517.44;;;26.15;46.83
62617;BME280;62539;51.190;6.808;2022-09-09T04:48:17;100518.38;;;26.14;46.65
62617;BME280;62539;51.190;6.808;2022-09-09T04:50:43;100507.75;;;26.14;46.70
62617;BME280;62539;51.190;6.808;2022-09-09T04:53:09;100510.41;;;26.14;46.98
62617;BME280;62539;51.190;6.808;2022-09-09T04:55:35;100513.91;;;26.15;46.54
62617;BME280;62539;51.190;6.808;2022-09-09T04:58:04;100518.38;;;26.14;46.67
62617;BME280;62539;51.190;6.808;2022-09-09T05:00:31;100524.53;;;26.15;46.90
62617;BME280;62539;51.190;6.808;2022-09-09T05:03:02;100519.31;;;26.13;46.51
62617;BME280;62539;51.190;6.808;2022-09-09T05:05:29;100526.41;;;26.12;46.38
62617;BME280;62539;51.190;6.808;2022-09-09T05:08:00;100526.41;;;26.12;46.37
62617;BME280;62539;51.190;6.808;2022-09-09T05:10:29;100521.09;;;26.12;46.62
62617;BME280;62539;51.190;6.808;2022-09-09T05:12:55;100519.41;;;26.11;46.69
62617;BME280;62539;51.190;6.808;2022-09-09T05:15:21;100520.28;;;26.12;47.12
62617;BME280;62539;51.190;6.808;2022-09-09T05:17:46;100514.94;;;26.12;47.27
62617;BME280;62539;51.190;6.808;2022-09-09T05:20:12;100519.41;;;26.11;47.52
62617;BME280;62539;51.190;6.808;2022-09-09T05:22:37;100518.66;;;26.09;47.05
62617;BME280;62539;51.190;6.808;2022-09-09T05:25:03;100518.66;;;26.09;46.47
62617;BME280;62539;51.190;6.808;2022-09-09T05:27:29;100515.16;;;26.09;46.99
62617;BME280;62539;51.190;6.808;2022-09-09T05:29:56;100504.53;;;26.09;46.94
62617;BME280;62539;51.190;6.808;2022-09-09T05:32:23;100502.63;;;26.11;47.32
62617;BME280;62539;51.190;6.808;2022-09-09T05:34:49;100508.78;;;26.11;47.19
62617;BME280;62539;51.190;6.808;2022-09-09T05:37:15;100512.38;;;26.10;47.57
62617;BME280;62539;51.190;6.808;2022-09-09T05:39:41;100501.66;;;26.12;46.94
62617;BME280;62539;51.190;6.808;2022-09-09T05:42:07;100500.78;;;26.11;47.22
62617;BME280;62539;51.190;6.808;2022-09-09T05:44:32;100502.50;;;26.12;47.31
62617;BME280;62539;51.190;6.808;2022-09-09T05:46:58;100506.03;;;26.13;47.07
62617;BME280;62539;51.190;6.808;2022-09-09T05:49:23;100506.03;;;26.13;47.05
62617;BME280;62539;51.190;6.808;2022-09-09T05:51:49;100506.03;;;26.13;47.14
62617;BME280;62539;51.190;6.808;2022-09-09T05:54:16;100506.97;;;26.12;46.88
62617;BME280;62539;51.190;6.808;2022-09-09T05:56:41;100520.28;;;26.12;46.90
62617;BME280;62539;51.190;6.808;2022-09-09T05:59:07;100520.28;;;26.12;47.11
62617;BME280;62539;51.190;6.808;2022-09-09T06:01:35;100521.09;;;26.12;46.86
62617;BME280;62539;51.190;6.808;2022-09-09T06:04:05;100519.41;;;26.11;47.42
62617;BME280;62539;51.190;6.808;2022-09-09T06:06:36;100521.97;;;26.13;47.13
62617;BME280;62539;51.190;6.808;2022-09-09T06:09:06;100528.13;;;26.13;46.96
62617;BME280;62539;51.190;6.808;2022-09-09T06:11:34;100527.72;;;26.07;47.44
62617;BME280;62539;51.190;6.808;2022-09-09T06:14:02;100530.03;;;26.11;47.39
62617;BME280;62539;51.190;6.808;2022-09-09T06:16:29;100528.34;;;26.10;47.11
62617;BME280;62539;51.190;6.808;2022-09-09T06:18:57;100526.63;;;26.09;47.44
62617;BME280;62539;51.190;6.808;2022-09-09T06:21:28;100519.41;;;26.11;47.24
62617;BME280;62539;51.190;6.808;2022-09-09T06:23:56;100517.59;;;26.12;47.40
62617;BME280;62539;51.190;6.808;2022-09-09T06:26:30;100526.41;;;26.12;47.51
62617;BME280;62539;51.190;6.808;2022-09-09T06:29:01;100523.69;;;26.14;47.41
62617;BME280;62539;51.190;6.808;2022-09-09T06:31:30;100521.88;;;26.15;47.25
62617;BME280;62539;51.190;6.808;2022-09-09T06:33:59;100519.22;;;26.15;47.10
62617;BME280;62539;51.190;6.808;2022-09-09T06:36:31;100534.22;;;26.16;47.36
62617;BME280;62539;51.190;6.808;2022-09-09T06:38:58;100522.63;;;26.17;47.01
62617;BME280;62539;51.190;6.808;2022-09-09T06:41:26;100522.63;;;26.17;47.36
62617;BME280;62539;51.190;6.808;2022-09-09T06:43:54;100521.78;;;26.16;47.50
62617;BME280;62539;51.190;6.808;2022-09-09T06:46:25;100525.28;;;26.17;47.32
62617;BME280;62539;51.190;6.808;2022-09-09T06:48:56;100514.63;;;26.17;47.37
62617;BME280;62539;51.190;6.808;2022-09-09T06:51:23;100526.13;;;26.17;46.98
62617;BME280;62539;51.190;6.808;2022-09-09T06:53:52;100528.81;;;26.17;47.22
62617;BME280;62539;51.190;6.808;2022-09-09T06:56:28;100529.63;;;26.18;47.11
62617;BME280;62539;51.190;6.808;2022-09-09T06:58:58;100526.22;;;26.16;46.99
62617;BME280;62539;51.190;6.808;2022-09-09T07:01:26;100530.25;;;26.08;47.23
62617;BME280;62539;51.190;6.808;2022-09-09T07:03:55;100531.69;;;26.14;47.31
62617;BME280;62539;51.190;6.808;2022-09-09T07:06:43;100531.84;;;26.11;47.29
62617;BME280;62539;51.190;6.808;2022-09-09T07:09:11;100529.84;;;26.15;47.05
62617;BME280;62539;51.190;6.808;2022-09-09T07:14:07;100537.72;;;26.16;47.43
62617;BME280;62539;51.190;6.808;2022-09-09T07:16:34;100527.19;;;26.15;47.23
62617;BME280;62539;51.190;6.808;2022-09-09T07:19:03;100537.72;;;26.16;47.26
62617;BME280;62539;51.190;6.808;2022-09-09T07:21:31;100538.69;;;26.15;47.61
62617;BME280;62539;51.190;6.808;2022-09-09T07:23:58;100538.56;;;26.17;47.50
62617;BME280;62539;51.190;6.808;2022-09-09T07:26:29;100541.13;;;26.18;47.46
62617;BME280;62539;51.190;6.808;2022-09-09T07:28:55;100548.97;;;26.20;47.69
62617;BME280;62539;51.190;6.808;2022-09-09T07:31:28;100551.56;;;26.21;47.41
62617;BME280;62539;51.190;6.808;2022-09-09T07:33:59;100555.16;;;26.20;47.42
62617;BME280;62539;51.190;6.808;2022-09-09T07:36:27;100556.88;;;26.21;47.20
62617;BME280;62539;51.190;6.808;2022-09-09T07:38:57;100550.69;;;26.21;47.47
62617;BME280;62539;51.190;6.808;2022-09-09T07:41:30;100549.72;;;26.22;47.42
62617;BME280;62539;51.190;6.808;2022-09-09T07:43:59;100557.69;;;26.22;46.97
62617;BME280;62539;51.190;6.808;2022-09-09T07:46:29;100563.03;;;26.22;47.27
62617;BME280;62539;51.190;6.808;2022-09-09T07:48:55;100563.16;;;26.20;47.20
62617;BME280;62539;51.190;6.808;2022-09-09T07:51:36;100567.59;;;26.20;46.65
62617;BME280;62539;51.190;6.808;2022-09-09T07:54:06;100557.09;;;26.18;46.69
62617;BME280;62539;51.190;6.808;2022-09-09T07:56:34;100564.94;;;26.20;46.29
62617;BME280;62539;51.190;6.808;2022-09-09T07:59:00;100565.81;;;26.20;46.19
62617;BME280;62539;51.190;6.808;2022-09-09T08:01:27;100564.94;;;26.20;46.12
62617;BME280;62539;51.190;6.808;2022-09-09T08:04:00;100570.25;;;26.20;46.02
62617;BME280;62539;51.190;6.808;2022-09-09T08:06:48;100568.69;;;26.17;46.04
62617;BME280;62539;51.190;6.808;2022-09-09T08:09:15;100575.56;;;26.20;45.96
62617;BME280;62539;51.190;6.808;2022-09-09T08:11:42;100570.25;;;26.20;45.90
62617;BME280;62539;51.190;6.808;2022-09-09T08:14:09;100574.75;;;26.19;45.42
62617;BME280;62539;51.190;6.808;2022-09-09T08:16:38;100569.28;;;26.21;45.54
62617;BME280;62539;51.190;6.808;2022-09-09T08:19:09;100571.13;;;26.20;45.22
62617;BME280;62539;51.190;6.808;2022-09-09T08:21:36;100567.50;;;26.21;45.42
62617;BME280;62539;51.190;6.808;2022-09-09T08:24:05;100568.47;;;26.20;45.41
62617;BME280;62539;51.190;6.808;2022-09-09T08:26:35;100571.94;;;26.21;45.02
62617;BME280;62539;51.190;6.808;2022-09-09T08:29:03;100569.81;;;26.13;44.70
62617;BME280;62539;51.190;6.808;2022-09-09T08:31:31;100574.81;;;26.18;44.50
62617;BME280;62539;51.190;6.808;2022-09-09T08:34:00;100572.16;;;26.18;44.12
62617;BME280;62539;51.190;6.808;2022-09-09T08:36:30;100568.69;;;26.17;43.95
62617;BME280;62539;51.190;6.808;2022-09-09T08:38:59;100566.84;;;26.18;43.87
62617;BME280;62539;51.190;6.808;2022-09-09T08:47:18;100564.94;;;26.20;44.01
62617;BME280;62539;51.190;6.808;2022-09-09T08:52:39;100565.81;;;26.20;43.89
62617;BME280;62539;51.190;6.808;2022-09-09T08:55:33;100565.91;;;26.19;43.94
62617;BME280;62539;51.190;6.808;2022-09-09T08:58:18;100563.16;;;26.20;43.48
62617;BME280;62539;51.190;6.808;2022-09-09T09:09:50;100565.34;;;26.13;43.59
62617;BME280;62539;51.190;6.808;2022-09-09T09:12:40;100574.22;;;26.14;43.97
62617;BME280;62539;51.190;6.808;2022-09-09T09:15:21;100583.09;;;26.13;43.48
62617;BME280;62539;51.190;6.808;2022-09-09T09:17:55;100574.28;;;26.12;43.25
62617;BME280;62539;51.190;6.808;2022-09-09T09:20:33;100578.84;;;26.10;43.22
62617;BME280;62539;51.190;6.808;2022-09-09T09:23:14;100584.16;;;26.10;42.69
62617;BME280;62539;51.190;6.808;2022-09-09T09:25:47;100577.34;;;26.06;41.04
62617;BME280;62539;51.190;6.808;2022-09-09T09:28:23;100588.63;;;25.97;41.00
62617;BME280;62539;51.190;6.808;2022-09-09T09:30:58;100583.31;;;25.97;41.65
62617;BME280;62539;51.190;6.808;2022-09-09T09:36:07;100582.13;;;26.01;41.85
62617;BME280;62539;51.190;6.808;2022-09-09T09:38:34;100586.41;;;26.04;42.07
62617;BME280;62539;51.190;6.808;2022-09-09T09:41:01;100583.63;;;26.05;42.37
62617;BME280;62539;51.190;6.808;2022-09-09T09:43:35;100580.00;;;26.06;42.20
62617;BME280;62539;51.190;6.808;2022-09-09T09:46:19;100584.28;;;26.09;41.96
62617;BME280;62539;51.190;6.808;2022-09-09T09:48:59;100591.19;;;26.11;41.65
62617;BME280;62539;51.190;6.808;2022-09-09T09:51:31;100587.50;;;26.14;41.38
62617;BME280;62539;51.190;6.808;2022-09-09T09:54:09;100585.78;;;26.13;41.21
62617;BME280;62539;51.190;6.808;2022-09-09T09:56:44;100584.72;;;26.16;41.43
62617;BME280;62539;51.190;6.808;2022-09-09T09:59:43;100582.38;;;26.11;41.56
62617;BME280;62539;51.190;6.808;2022-09-09T10:04:46;100574.22;;;26.14;41.29
62617;BME280;62539;51.190;6.808;2022-09-09T10:09:46;100568.78;;;26.16;41.54
62617;BME280;62539;51.190;6.808;2022-09-09T10:12:36;100570.47;;;26.17;41.33
62617;BME280;62539;51.190;6.808;2022-09-09T10:24:04;100574.41;;;26.24;41.21
62617;BME280;62539;51.190;6.808;2022-09-09T10:30:19;100571.53;;;26.27;41.00
62617;BME280;62539;51.190;6.808;2022-09-09T10:33:07;100565.69;;;26.22;41.37
62617;BME280;62539;51.190;6.808;2022-09-09T10:56:18;100558.13;;;26.16;41.19
62617;BME280;62539;51.190;6.808;2022-09-09T10:59:04;100558.31;;;26.12;41.07
62617;BME280;62539;51.190;6.808;2022-09-09T11:01:43;100552.81;;;26.16;41.36
62617;BME280;62539;51.190;6.808;2022-09-09T11:04:22;100552.00;;;26.15;40.74
62617;BME280;62539;51.190;6.808;2022-09-09T11:06:54;100549.31;;;26.15;41.04
62617;BME280;62539;51.190;6.808;2022-09-09T11:09:24;100547.63;;;26.14;41.28
62617;BME280;62539;51.190;6.808;2022-09-09T11:11:56;100551.13;;;26.15;41.38
62617;BME280;62539;51.190;6.808;2022-09-09T11:15:35;100544.28;;;26.10;41.46
62617;BME280;62539;51.190;6.808;2022-09-09T11:17:49;100555.66;;;26.12;41.50
62617;BME280;62539;51.190;6.808;2022-09-09T11:20:19;100558.31;;;26.12;41.50
62617;BME280;62539;51.190;6.808;2022-09-09T11:22:52;100569.91;;;26.11;41.46
62617;BME280;62539;51.190;6.808;2022-09-09T11:25:37;100571.72;;;26.11;41.69
62617;BME280;62539;51.190;6.808;2022-09-09T11:34:42;100562.81;;;26.12;43.17
62617;BME280;62539;51.190;6.808;2022-09-09T11:37:30;100558.31;;;26.12;42.86
62617;BME280;62539;51.190;6.808;2022-09-09T11:40:14;100558.13;;;26.16;43.54
62617;BME280;62539;51.190;6.808;2022-09-09T11:42:47;100559.00;;;26.16;43.45
62617;BME280;62539;51.190;6.808;2022-09-09T11:45:22;100558.13;;;26.16;44.07
62617;BME280;62539;51.190;6.808;2022-09-09T11:48:00;100546.66;;;26.15;43.86
62617;BME280;62539;51.190;6.808;2022-09-09T11:53:21;100554.69;;;26.13;43.07
62617;BME280;62539;51.190;6.808;2022-09-09T11:56:02;100554.69;;;26.13;43.08
62617;BME280;62539;51.190;6.808;2022-09-09T11:58:35;100551.31;;;26.11;42.40
62617;BME280;62539;51.190;6.808;2022-09-09T12:01:34;100562.16;;;26.08;42.74
62617;BME280;62539;51.190;6.808;2022-09-09T12:04:14;100558.44;;;26.11;43.22
62617;BME280;62539;51.190;6.808;2022-09-09T12:12:26;100560.22;;;26.10;43.20
62617;BME280;62539;51.190;6.808;2022-09-09T12:15:00;100571.44;;;26.16;43.78
62617;BME280;62539;51.190;6.808;2022-09-09T12:17:28;100560.56;;;26.19;43.88
62617;BME280;62539;51.190;6.808;2022-09-09T12:26:14;100563.03;;;26.22;43.49
62617;BME280;62539;51.190;6.808;2022-09-09T12:29:25;100559.63;;;26.20;43.64
62617;BME280;62539;51.190;6.808;2022-09-09T12:32:10;100559.63;;;26.20;43.43
62617;BME280;62539;51.190;6.808;2022-09-09T12:35:20;100562.41;;;26.18;43.18
62617;BME280;62539;51.190;6.808;2022-09-09T12:37:53;100556.88;;;26.21;42.98
62617;BME280;62539;51.190;6.808;2022-09-09T12:40:25;100555.91;;;26.22;43.20
62617;BME280;62539;51.190;6.808;2022-09-09T12:42:53;100552.38;;;26.22;42.94
62617;BME280;62539;51.190;6.808;2022-09-09T12:45:31;100547.94;;;26.22;42.79
62617;BME280;62539;51.190;6.808;2022-09-09T12:48:06;100544.41;;;26.22;42.73
62617;BME280;62539;51.190;6.808;2022-09-09T12:50:37;100547.94;;;26.22;42.48
62617;BME280;62539;51.190;6.808;2022-09-09T12:53:12;100542.50;;;26.24;42.35
62617;BME280;62539;51.190;6.808;2022-09-09T12:55:50;100538.34;;;26.20;42.47
62617;BME280;62539;51.190;6.808;2022-09-09T12:58:18;100581.75;;;26.20;42.84
62617;BME280;62539;51.190;6.808;2022-09-09T13:00:53;100566.84;;;26.18;42.99
62617;BME280;62539;51.190;6.808;2022-09-09T13:03:23;100557.69;;;26.22;43.22
62617;BME280;62539;51.190;6.808;2022-09-09T13:05:56;100564.72;;;26.23;45.55
62617;BME280;62539;51.190;6.808;2022-09-09T13:08:25;100558.44;;;26.24;46.67
62617;BME280;62539;51.190;6.808;2022-09-09T13:10:59;100555.56;;;26.27;47.51
62617;BME280;62539;51.190;6.808;2022-09-09T13:13:34;100551.72;;;26.31;47.50
62617;BME280;62539;51.190;6.808;2022-09-09T13:16:03;100544.50;;;26.33;48.77
62617;BME280;62539;51.190;6.808;2022-09-09T13:18:35;100544.41;;;26.35;48.78
62617;BME280;62539;51.190;6.808;2022-09-09T13:21:03;100544.41;;;26.35;48.61
62617;BME280;62539;51.190;6.808;2022-09-09T13:23:32;100542.56;;;26.35;48.88
62617;BME280;62539;51.190;6.808;2022-09-09T13:26:05;100536.28;;;26.36;49.16
62617;BME280;62539;51.190;6.808;2022-09-09T13:28:48;100544.28;;;26.36;49.04
62617;BME280;62539;51.190;6.808;2022-09-09T13:31:44;100540.03;;;26.34;48.92
62617;BME280;62539;51.190;6.808;2022-09-09T13:34:14;100535.34;;;26.37;48.78
62617;BME280;62539;51.190;6.808;2022-09-09T13:36:52;100530.97;;;26.36;48.31
62617;BME280;62539;51.190;6.808;2022-09-09T13:39:23;100526.63;;;26.35;48.29
62617;BME280;62539;51.190;6.808;2022-09-09T13:41:49;100530.97;;;26.36;48.15
62617;BME280;62539;51.190;6.808;2022-09-09T13:49:30;100522.03;;;26.37;47.85
62617;BME280;62539;51.190;6.808;2022-09-09T13:52:08;100510.66;;;26.35;47.38
62617;BME280;62539;51.190;6.808;2022-09-09T13:54:36;100521.09;;;26.38;47.38
62617;BME280;62539;51.190;6.808;2022-09-09T13:57:02;100521.09;;;26.38;47.47
62617;BME280;62539;51.190;6.808;2022-09-09T13:59:29;100518.41;;;26.38;47.62
62617;BME280;62539;51.190;6.808;2022-09-09T14:01:55;100519.38;;;26.37;47.19
62617;BME280;62539;51.190;6.808;2022-09-09T14:04:20;100514.06;;;26.37;47.18
62617;BME280;62539;51.190;6.808;2022-09-09T14:06:46;100517.47;;;26.39;47.10
62617;BME280;62539;51.190;6.808;2022-09-09T14:09:14;100508.53;;;26.40;47.03
62617;BME280;62539;51.190;6.808;2022-09-09T14:11:41;100515.53;;;26.41;46.78
62617;BME280;62539;51.190;6.808;2022-09-09T14:14:07;100507.47;;;26.43;46.54
62617;BME280;62539;51.190;6.808;2022-09-09T14:16:33;100516.28;;;26.44;46.52
62617;BME280;62539;51.190;6.808;2022-09-09T14:18:59;100521.38;;;26.47;46.55
62617;BME280;62539;51.190;6.808;2022-09-09T14:21:25;100521.28;;;26.48;46.43
62617;BME280;62539;51.190;6.808;2022-09-09T14:23:52;100518.50;;;26.50;46.10
62617;BME280;62539;51.190;6.808;2022-09-09T14:26:18;100514.13;;;26.49;45.78
62617;BME280;62539;51.190;6.808;2022-09-09T14:28:46;100522.97;;;26.49;45.89
62617;BME280;62539;51.190;6.808;2022-09-09T14:31:13;100505.19;;;26.50;45.95
62617;BME280;62539;51.190;6.808;2022-09-09T14:33:39;100507.84;;;26.50;45.67
62617;BME280;62539;51.190;6.808;2022-09-09T14:36:05;100506.16;;;26.49;45.72
62617;BME280;62539;51.190;6.808;2022-09-09T14:38:34;100513.31;;;26.48;45.72
62617;BME280;62539;51.190;6.808;2022-09-09T14:41:07;100517.00;;;26.46;45.46
62617;BME280;62539;51.190;6.808;2022-09-09T14:43:35;100522.34;;;26.46;45.30
62617;BME280;62539;51.190;6.808;2022-09-09T14:46:10;100554.25;;;26.46;45.82
62617;BME280;62539;51.190;6.808;2022-09-09T14:48:37;100559.56;;;26.46;45.97
62617;BME280;62539;51.190;6.808;2022-09-09T14:51:17;100579.16;;;26.45;46.47
62617;BME280;62539;51.190;6.808;2022-09-09T14:53:48;100567.56;;;26.46;46.36
62617;BME280;62539;51.190;6.808;2022-09-09T14:56:18;100575.44;;;26.47;46.34
62617;BME280;62539;51.190;6.808;2022-09-09T14:58:45;100572.78;;;26.47;46.42
62617;BME280;62539;51.190;6.808;2022-09-09T15:01:16;100562.97;;;26.48;46.28
62617;BME280;62539;51.190;6.808;2022-09-09T15:03:49;100562.97;;;26.48;46.40
62617;BME280;62539;51.190;6.808;2022-09-09T15:06:16;100563.84;;;26.48;46.33
62617;BME280;62539;51.190;6.808;2022-09-09T15:08:44;100564.66;;;26.49;46.19
62617;BME280;62539;51.190;6.808;2022-09-09T15:11:11;100541.69;;;26.48;46.58
62617;BME280;62539;51.190;6.808;2022-09-09T15:13:39;100546.06;;;26.49;46.29
62617;BME280;62539;51.190;6.808;2022-09-09T15:16:08;100549.56;;;26.49;46.37
62617;BME280;62539;51.190;6.808;2022-09-09T15:18:39;100548.72;;;26.49;46.44
62617;BME280;62539;51.190;6.808;2022-09-09T15:21:18;100543.41;;;26.49;46.16
62617;BME280;62539;51.190;6.808;2022-09-09T15:23:45;100545.09;;;26.50;46.33
62617;BME280;62539;51.190;6.808;2022-09-09T15:26:11;100541.69;;;26.48;46.38
62617;BME280;62539;51.190;6.808;2022-09-09T15:28:39;100535.41;;;26.49;46.16
62617;BME280;62539;51.190;6.808;2022-09-09T15:31:09;100525.75;;;26.48;46.35
62617;BME280;62539;51.190;6.808;2022-09-09T15:33:34;100534.59;;;26.48;46.31
62617;BME280;62539;51.190;6.808;2022-09-09T15:36:22;100538.28;;;26.46;46.28